Terminal Aerodrome Forecast
Issued by NWS

Home | Current Version | Previous Version | Graphics & Text | Print | Product List | Glossary On
Versions: 1 2 3 4 5 6 7 8 9 10 11 12 13 14
000
FTUS43 KGRB 032320
TAFATW
TAF
KATW 032320Z 0400/0424 30010G18KT 6SM -RA BKN070
      TEMPO 0400/0404 3SM -TSRA BKN040CB
     FM040400 32010KT 6SM -RA BKN035 BKN100
     FM040600 35012KT P6SM SCT025 BKN040
     FM041300 34016G26KT P6SM BKN035=

USA.gov is the U.S. government's official web portal to all federal, state and local government web resources and services.